Time;durP1;ratioP1;P1;durP2;ratioP2;P2;SDS_P1;SDS_P2;PMS_P1;PMS_P2;Temp;Humidity;BMP_temperature;BMP_pressure;BME280_temperature;BME280_humidity;BME280_pressure;Samples;Min_cycle;Max_cycle;Signal;HPM_P1;HPM_P2
2022/03/17 00:00:54;;;;;;;39.03;22.85;;;;;;;;;;4999474;28;20030;-81
2022/03/17 00:03:20;;;;;;;40.15;23.35;;;;;;;;;;5021484;28;20175;-81
2022/03/17 00:05:47;;;;;;;35.88;21.98;;;;;;;;;;4998789;28;20138;-81
2022/03/17 00:08:13;;;;;;;37.90;21.80;;;;;;;;;;5016804;28;20097;-81
2022/03/17 00:10:39;;;;;;;36.65;20.40;;;;;;;;;;5016803;28;20386;-82
2022/03/17 00:13:05;;;;;;;38.22;23.40;;;;;;;;;;4998863;28;20026;-81
2022/03/17 00:15:31;;;;;;;37.80;22.58;;;;;;;;;;4998727;28;20030;-82
2022/03/17 00:17:57;;;;;;;36.97;22.48;;;;;;;;;;5016364;28;20113;-81
2022/03/17 00:20:23;;;;;;;37.17;21.85;;;;;;;;;;5016532;28;20032;-81
2022/03/17 00:22:49;;;;;;;36.15;22.35;;;;;;;;;;4999748;28;20022;-81
2022/03/17 00:25:17;;;;;;;37.78;22.40;;;;;;;;;;5017267;28;20034;-82
2022/03/17 00:27:43;;;;;;;36.33;22.27;;;;;;;;;;5017292;28;20477;-82
2022/03/17 00:30:10;;;;;;;36.25;22.45;;;;;;;;;;5018852;28;20470;-81
2022/03/17 00:32:37;;;;;;;38.95;22.77;;;;;;;;;;5017444;28;20034;-82
2022/03/17 00:37:48;;;;;;;39.58;23.33;;;;;;;;;;5015946;28;20097;-81
2022/03/17 00:40:14;;;;;;;39.22;22.75;;;;;;;;;;5017708;28;20034;-81
2022/03/17 00:42:40;;;;;;;38.70;23.33;;;;;;;;;;5018716;28;20049;-82
2022/03/17 00:45:09;;;;;;;34.75;22.15;;;;;;;;;;5000515;28;20022;-81
2022/03/17 00:47:35;;;;;;;41.97;24.13;;;;;;;;;;5017687;28;20561;-81
2022/03/17 00:50:01;;;;;;;44.10;24.48;;;;;;;;;;5017032;28;20489;-81
2022/03/17 00:52:27;;;;;;;41.63;24.63;;;;;;;;;;5016699;28;20034;-82
2022/03/17 00:54:53;;;;;;;37.40;22.13;;;;;;;;;;4998920;28;20028;-82
2022/03/17 00:57:19;;;;;;;35.58;22.67;;;;;;;;;;5015441;28;20045;-82
2022/03/17 00:59:45;;;;;;;40.22;23.38;;;;;;;;;;4998468;28;20037;-82
2022/03/17 01:02:11;;;;;;;40.58;23.60;;;;;;;;;;5016083;28;20025;-81
2022/03/17 01:04:37;;;;;;;38.13;23.25;;;;;;;;;;5018734;28;20030;-82
2022/03/17 01:07:03;;;;;;;38.08;23.10;;;;;;;;;;5016125;28;20547;-82
2022/03/17 01:09:29;;;;;;;41.00;24.08;;;;;;;;;;4999178;28;20072;-82
2022/03/17 01:11:56;;;;;;;38.22;22.65;;;;;;;;;;5019740;28;20038;-82
2022/03/17 01:14:22;;;;;;;38.25;24.40;;;;;;;;;;5026897;28;20034;-82
2022/03/17 01:16:48;;;;;;;38.03;24.15;;;;;;;;;;5021743;28;20026;-83
2022/03/17 01:19:14;;;;;;;36.30;22.60;;;;;;;;;;5003363;28;20022;-81
2022/03/17 01:21:42;;;;;;;38.03;22.75;;;;;;;;;;5021378;28;20038;-82
2022/03/17 01:24:08;;;;;;;41.55;23.42;;;;;;;;;;5020042;28;20048;-81
2022/03/17 01:26:34;;;;;;;42.00;23.67;;;;;;;;;;5020699;28;20021;-82
2022/03/17 01:29:00;;;;;;;39.35;24.30;;;;;;;;;;5002196;28;20014;-82
2022/03/17 01:31:27;;;;;;;42.38;24.15;;;;;;;;;;5001697;28;20030;-81
2022/03/17 01:33:54;;;;;;;40.47;24.35;;;;;;;;;;5019300;28;20026;-82
2022/03/17 01:36:20;;;;;;;41.22;24.80;;;;;;;;;;5018679;28;20109;-82
2022/03/17 01:38:46;;;;;;;39.22;22.88;;;;;;;;;;5001465;28;20033;-82
2022/03/17 01:41:12;;;;;;;42.55;22.98;;;;;;;;;;5018686;28;20532;-81
2022/03/17 01:43:38;;;;;;;36.13;22.75;;;;;;;;;;5019637;28;20026;-82
2022/03/17 01:46:04;;;;;;;35.05;22.17;;;;;;;;;;5018497;28;20115;-81
2022/03/17 01:48:30;;;;;;;42.75;24.52;;;;;;;;;;5018907;28;20072;-81
2022/03/17 01:50:56;;;;;;;40.58;24.08;;;;;;;;;;5017485;28;20040;-82
2022/03/17 01:53:22;;;;;;;40.45;24.40;;;;;;;;;;5017777;28;20034;-82
2022/03/17 01:55:48;;;;;;;43.47;23.65;;;;;;;;;;5016973;28;20490;-82
2022/03/17 01:58:14;;;;;;;43.42;24.38;;;;;;;;;;5001060;28;20454;-81
2022/03/17 02:00:42;;;;;;;44.30;24.00;;;;;;;;;;5017300;28;20355;-82
2022/03/17 02:03:09;;;;;;;36.45;23.27;;;;;;;;;;5002979;28;20049;-81
2022/03/17 02:05:35;;;;;;;39.13;23.38;;;;;;;;;;5002672;28;20036;-82
2022/03/17 02:08:02;;;;;;;41.38;23.25;;;;;;;;;;5020454;28;20415;-81
2022/03/17 02:13:08;;;;;;;41.97;24.05;;;;;;;;;;5020514;28;20029;-80
2022/03/17 02:13:15;;;;;;;37.88;22.05;;;;;;;;;;5020256;28;20045;-82
2022/03/17 02:15:43;;;;;;;43.30;23.08;;;;;;;;;;5019735;28;20044;-82
2022/03/17 02:18:09;;;;;;;39.05;23.52;;;;;;;;;;5002437;28;20180;-81
2022/03/17 02:20:36;;;;;;;42.95;24.33;;;;;;;;;;5018547;28;20112;-82
2022/03/17 02:25:57;;;;;;;43.75;25.25;;;;;;;;;;5019834;28;20044;-81
2022/03/17 02:28:28;;;;;;;44.67;25.30;;;;;;;;;;5019947;28;20049;-82
2022/03/17 02:30:54;;;;;;;46.80;26.63;;;;;;;;;;5019501;28;20406;-81
2022/03/17 02:33:20;;;;;;;40.67;23.30;;;;;;;;;;5019978;28;20039;-82
2022/03/17 02:35:49;;;;;;;46.13;27.17;;;;;;;;;;5002443;28;20083;-81
2022/03/17 02:38:16;;;;;;;40.42;25.65;;;;;;;;;;5019508;28;20149;-83
2022/03/17 02:40:43;;;;;;;45.13;26.15;;;;;;;;;;5078630;22;20356;-82
2022/03/17 02:43:09;;;;;;;40.88;24.73;;;;;;;;;;5019474;28;20502;-82
2022/03/17 02:45:41;;;;;;;46.88;24.88;;;;;;;;;;5001273;28;20049;-81
2022/03/17 02:48:08;;;;;;;44.17;26.38;;;;;;;;;;5012924;28;20038;-81
2022/03/17 02:50:35;;;;;;;41.33;25.65;;;;;;;;;;5000013;28;20023;-82
2022/03/17 02:53:05;;;;;;;43.38;24.67;;;;;;;;;;4999121;28;20093;-81
2022/03/17 02:55:36;;;;;;;42.83;25.80;;;;;;;;;;4981824;28;20094;-82
2022/03/17 02:58:07;;;;;;;42.90;25.55;;;;;;;;;;5000178;28;20041;-81
2022/03/17 03:00:34;;;;;;;40.85;25.38;;;;;;;;;;4998780;28;20094;-82
2022/03/17 03:03:00;;;;;;;44.88;27.02;;;;;;;;;;4997319;28;20022;-82
2022/03/17 03:05:26;;;;;;;48.90;28.45;;;;;;;;;;4981181;28;20022;-83
2022/03/17 03:07:53;;;;;;;49.00;27.73;;;;;;;;;;4977843;28;20033;-81
2022/03/17 03:10:20;;;;;;;40.85;24.85;;;;;;;;;;4995217;28;20029;-82
2022/03/17 03:12:46;;;;;;;42.40;26.73;;;;;;;;;;4995170;28;20026;-82
2022/03/17 03:15:12;;;;;;;42.85;25.80;;;;;;;;;;4985287;28;20558;-82
2022/03/17 03:17:38;;;;;;;38.63;24.70;;;;;;;;;;4971142;28;20030;-81
2022/03/17 03:20:05;;;;;;;43.08;25.83;;;;;;;;;;4997952;28;20049;-81
2022/03/17 03:22:36;;;;;;;43.25;25.48;;;;;;;;;;4996815;28;20114;-82
2022/03/17 03:25:03;;;;;;;44.75;25.50;;;;;;;;;;4979199;28;20023;-83
2022/03/17 03:27:29;;;;;;;43.70;26.70;;;;;;;;;;4995987;28;20210;-83
2022/03/17 03:29:55;;;;;;;45.67;26.45;;;;;;;;;;4996145;28;20054;-82
2022/03/17 03:32:22;;;;;;;44.97;27.10;;;;;;;;;;4995057;28;20496;-82
2022/03/17 03:34:49;;;;;;;44.40;26.33;;;;;;;;;;4995079;28;20109;-83
2022/03/17 03:37:24;;;;;;;44.75;25.30;;;;;;;;;;4978099;28;20058;-82
2022/03/17 03:39:54;;;;;;;42.85;25.77;;;;;;;;;;4959278;28;20093;-82
2022/03/17 03:42:20;;;;;;;43.25;26.35;;;;;;;;;;4982938;28;20027;-81
2022/03/17 03:44:47;;;;;;;43.58;25.42;;;;;;;;;;4983651;28;20194;-83
2022/03/17 03:47:13;;;;;;;47.17;26.67;;;;;;;;;;4979115;28;20027;-84
2022/03/17 03:49:42;;;;;;;44.75;26.20;;;;;;;;;;4980084;28;20339;-85
2022/03/17 03:52:09;;;;;;;46.45;26.25;;;;;;;;;;4980062;28;20026;-82
2022/03/17 03:54:36;;;;;;;45.20;26.67;;;;;;;;;;4998743;28;20030;-83
2022/03/17 03:57:02;;;;;;;50.92;29.17;;;;;;;;;;4999104;28;20098;-83
2022/03/17 03:59:29;;;;;;;51.17;30.02;;;;;;;;;;4998391;28;20072;-84
2022/03/17 04:02:29;;;;;;;50.90;28.17;;;;;;;;;;4998868;28;20018;-81
2022/03/17 04:04:55;;;;;;;44.72;26.25;;;;;;;;;;4965219;28;20031;-81
2022/03/17 04:07:21;;;;;;;49.33;27.60;;;;;;;;;;4959734;28;20030;-82
2022/03/17 04:09:47;;;;;;;42.92;26.17;;;;;;;;;;4980538;28;20019;-83
2022/03/17 04:12:14;;;;;;;52.00;27.50;;;;;;;;;;4996576;28;20101;-83
2022/03/17 04:14:40;;;;;;;44.42;25.83;;;;;;;;;;4995772;28;20498;-83
2022/03/17 04:17:18;;;;;;;;;;;;;;;;;;;;;
2022/03/17 04:19:44;;;;;;;46.83;26.92;;;;;;;;;;5055385;23;20041;-81
2022/03/17 04:22:50;;;;;;;44.53;25.90;;;;;;;;;;5035083;28;20079;-81
2022/03/17 04:25:45;;;;;;;;;;;;;;;;;;;;;
2022/03/17 04:28:19;;;;;;;47.45;25.85;;;;;;;;;;5033574;28;20116;-81
2022/03/17 04:30:45;;;;;;;44.63;26.05;;;;;;;;;;5033589;28;20557;-82
2022/03/17 04:33:11;;;;;;;45.33;26.77;;;;;;;;;;5033192;28;20064;-82
2022/03/17 04:39:13;;;;;;;48.67;25.40;;;;;;;;;;5020827;28;20041;-83
2022/03/17 04:41:39;;;;;;;43.88;27.17;;;;;;;;;;5045415;28;20040;-82
2022/03/17 04:44:44;;;;;;;41.47;24.45;;;;;;;;;;5037017;28;20105;-82
2022/03/17 04:49:49;;;;;;;42.50;25.48;;;;;;;;;;5532951;22;20063;-81
2022/03/17 04:55:03;;;;;;;43.53;26.05;;;;;;;;;;5030670;28;20570;-82
2022/03/17 04:58:12;;;;;;;46.22;27.38;;;;;;;;;;5027141;28;20568;-82
2022/03/17 05:00:39;;;;;;;49.88;28.55;;;;;;;;;;5014104;28;20105;-82
2022/03/17 05:12:17;;;;;;;45.63;26.27;;;;;;;;;;5035925;22;20539;-81
2022/03/17 05:14:43;;;;;;;49.10;26.23;;;;;;;;;;5034889;28;20033;-81
2022/03/17 05:17:09;;;;;;;43.08;25.33;;;;;;;;;;5013621;28;20018;-82
2022/03/17 05:19:35;;;;;;;48.00;27.33;;;;;;;;;;5019306;28;20018;-82
2022/03/17 05:22:02;;;;;;;48.92;28.63;;;;;;;;;;5019200;28;20042;-82
2022/03/17 05:24:28;;;;;;;50.38;28.88;;;;;;;;;;5024205;28;20018;-82
2022/03/17 05:26:57;;;;;;;50.75;29.63;;;;;;;;;;5023695;28;20028;-83
2022/03/17 05:29:24;;;;;;;49.17;28.70;;;;;;;;;;5037827;28;20030;-83
2022/03/17 05:31:50;;;;;;;48.90;28.73;;;;;;;;;;5016038;28;20054;-83
2022/03/17 05:34:16;;;;;;;48.65;28.98;;;;;;;;;;5019746;28;20038;-82
2022/03/17 05:36:42;;;;;;;53.55;29.38;;;;;;;;;;5030694;28;20053;-83
2022/03/17 05:39:08;;;;;;;54.47;30.77;;;;;;;;;;5035206;28;20029;-83
2022/03/17 05:41:34;;;;;;;54.70;29.75;;;;;;;;;;5004486;28;20437;-83
2022/03/17 05:44:00;;;;;;;49.47;29.00;;;;;;;;;;5027511;28;20032;-83
2022/03/17 05:46:26;;;;;;;55.85;30.88;;;;;;;;;;5058559;28;20017;-83
2022/03/17 05:48:56;;;;;;;51.55;29.27;;;;;;;;;;5047575;28;20374;-82
2022/03/17 05:51:22;;;;;;;46.85;28.20;;;;;;;;;;5035563;28;20022;-83
2022/03/17 05:53:48;;;;;;;48.97;28.48;;;;;;;;;;5034465;28;20024;-82
2022/03/17 05:56:14;;;;;;;51.92;30.27;;;;;;;;;;5029913;28;20006;-82
2022/03/17 05:58:40;;;;;;;54.30;29.48;;;;;;;;;;4997400;28;20017;-83
2022/03/17 06:01:06;;;;;;;53.97;30.23;;;;;;;;;;5014644;28;20026;-82
2022/03/17 06:03:31;;;;;;;52.65;29.70;;;;;;;;;;5017706;28;20129;-82
2022/03/17 06:05:58;;;;;;;54.58;30.40;;;;;;;;;;5011672;28;20060;-83
2022/03/17 06:08:25;;;;;;;54.17;29.85;;;;;;;;;;5024076;28;20449;-83
2022/03/17 06:10:51;;;;;;;51.70;31.25;;;;;;;;;;5008105;28;20481;-82
2022/03/17 06:13:18;;;;;;;49.47;30.42;;;;;;;;;;5037815;28;20044;-83
2022/03/17 06:15:44;;;;;;;53.03;30.10;;;;;;;;;;5021607;28;20029;-83
2022/03/17 06:18:11;;;;;;;58.70;32.70;;;;;;;;;;5033425;28;20034;-83
2022/03/17 06:20:38;;;;;;;51.58;30.48;;;;;;;;;;5034705;28;20033;-83
2022/03/17 06:23:05;;;;;;;51.90;29.58;;;;;;;;;;5038934;28;20398;-83
2022/03/17 06:25:32;;;;;;;45.25;27.00;;;;;;;;;;5019922;28;20089;-83
2022/03/17 06:27:58;;;;;;;48.00;27.30;;;;;;;;;;5017893;28;20440;-83
2022/03/17 06:30:25;;;;;;;46.20;27.13;;;;;;;;;;5035394;28;20099;-83
2022/03/17 06:32:52;;;;;;;38.17;23.73;;;;;;;;;;5035527;28;20025;-83
2022/03/17 06:35:19;;;;;;;40.35;23.58;;;;;;;;;;5012279;28;20021;-83
2022/03/17 06:37:46;;;;;;;41.30;24.30;;;;;;;;;;5017312;28;20084;-83
2022/03/17 06:40:12;;;;;;;39.60;22.80;;;;;;;;;;5032489;28;20032;-83
2022/03/17 06:42:39;;;;;;;42.38;25.48;;;;;;;;;;5037419;28;20447;-84
2022/03/17 06:45:05;;;;;;;41.15;25.30;;;;;;;;;;5019318;28;20053;-83
2022/03/17 06:47:31;;;;;;;52.75;27.27;;;;;;;;;;5040416;28;20033;-83
2022/03/17 06:49:57;;;;;;;48.65;29.27;;;;;;;;;;5036853;28;20022;-84
2022/03/17 06:52:23;;;;;;;48.65;30.02;;;;;;;;;;5018238;28;20087;-83
2022/03/17 06:54:50;;;;;;;46.05;27.27;;;;;;;;;;5019981;28;20470;-83
2022/03/17 06:57:17;;;;;;;50.67;27.00;;;;;;;;;;5013880;28;20049;-83
2022/03/17 06:59:43;;;;;;;48.28;26.70;;;;;;;;;;5037467;28;20036;-83
2022/03/17 07:02:10;;;;;;;55.70;30.17;;;;;;;;;;5036675;28;20026;-83
2022/03/17 07:04:35;;;;;;;49.47;28.33;;;;;;;;;;5038702;28;20104;-83
2022/03/17 07:07:01;;;;;;;51.30;29.60;;;;;;;;;;5019143;28;20052;-83
2022/03/17 07:10:06;;;;;;;49.38;28.60;;;;;;;;;;5023231;28;20068;-82
2022/03/17 07:12:32;;;;;;;55.65;31.42;;;;;;;;;;5015750;28;20045;-82
2022/03/17 07:14:58;;;;;;;46.08;27.50;;;;;;;;;;5015388;28;20431;-82
2022/03/17 07:17:24;;;;;;;47.65;28.77;;;;;;;;;;5024910;28;20018;-82
2022/03/17 07:29:04;;;;;;;51.78;31.25;;;;;;;;;;5002745;28;20030;-82
2022/03/17 07:35:12;;;;;;;56.90;33.28;;;;;;;;;;5018214;28;20084;-82
2022/03/17 07:37:38;;;;;;;54.00;32.00;;;;;;;;;;5037815;28;20147;-82
2022/03/17 07:44:09;;;;;;;52.83;30.85;;;;;;;;;;4936668;29;20071;-82
2022/03/17 07:52:56;;;;;;;53.38;28.85;;;;;;;;;;4912591;29;20042;-82
2022/03/17 07:55:23;;;;;;;51.95;29.27;;;;;;;;;;5002584;28;20076;-82
2022/03/17 07:57:49;;;;;;;55.90;31.20;;;;;;;;;;5031604;28;20033;-81
2022/03/17 08:00:15;;;;;;;49.45;30.38;;;;;;;;;;5027724;28;20029;-82
2022/03/17 08:02:44;;;;;;;50.28;30.13;;;;;;;;;;4998810;28;20116;-82
2022/03/17 08:07:56;;;;;;;49.72;28.60;;;;;;;;;;5031366;28;20111;-84
2022/03/17 08:19:39;;;;;;;42.67;24.25;;;;;;;;;;5261759;22;20049;-83
2022/03/17 08:22:26;;;;;;;39.95;23.83;;;;;;;;;;5038087;28;20030;-82
2022/03/17 08:24:55;;;;;;;48.38;24.00;;;;;;;;;;5038149;28;20051;-82
2022/03/17 08:27:21;;;;;;;43.50;23.88;;;;;;;;;;5017790;28;20054;-81
2022/03/17 08:29:48;;;;;;;47.28;23.92;;;;;;;;;;5031228;28;20470;-82
2022/03/17 08:32:14;;;;;;;45.42;25.73;;;;;;;;;;5000837;28;20034;-82
2022/03/17 08:34:40;;;;;;;44.10;24.20;;;;;;;;;;5018118;28;20034;-82
2022/03/17 08:37:06;;;;;;;41.13;23.95;;;;;;;;;;5021515;28;20112;-82
2022/03/17 08:39:32;;;;;;;43.80;23.90;;;;;;;;;;5019429;28;20061;-83
2022/03/17 08:41:58;;;;;;;46.95;24.15;;;;;;;;;;5038181;28;20547;-82
2022/03/17 08:44:24;;;;;;;42.60;23.50;;;;;;;;;;5021945;28;20033;-83
2022/03/17 08:49:48;;;;;;;43.35;22.90;;;;;;;;;;5038742;28;20053;-85
2022/03/17 08:52:31;;;;;;;47.17;24.00;;;;;;;;;;5032362;28;20032;-82
2022/03/17 08:55:00;;;;;;;47.47;24.83;;;;;;;;;;5039880;28;20025;-83
2022/03/17 08:57:26;;;;;;;43.55;24.10;;;;;;;;;;5034985;28;20096;-83
2022/03/17 08:59:53;;;;;;;42.72;22.65;;;;;;;;;;5023617;28;20033;-82
2022/03/17 09:02:44;;;;;;;41.45;23.88;;;;;;;;;;5042118;28;20036;-82
2022/03/17 09:05:10;;;;;;;;;;;;;;;;;;5035955;28;20037;-81
2022/03/17 09:07:36;;;;;;;41.40;23.63;;;;;;;;;;5024954;28;19916;-84
2022/03/17 09:10:05;;;;;;;38.03;22.75;;;;;;;;;;5025794;28;20482;-82
2022/03/17 09:12:35;;;;;;;47.58;22.98;;;;;;;;;;5023947;28;20417;-82
2022/03/17 09:15:01;;;;;;;43.28;24.48;;;;;;;;;;5021135;28;20124;-81
2022/03/17 09:17:27;;;;;;;43.50;23.05;;;;;;;;;;5032453;28;20025;-82
2022/03/17 09:19:53;;;;;;;45.10;25.40;;;;;;;;;;5038007;28;20128;-81
2022/03/17 09:22:49;;;;;;;39.92;24.10;;;;;;;;;;5042714;28;20096;-84
2022/03/17 09:25:15;;;;;;;40.08;23.77;;;;;;;;;;5009549;28;20098;-79
2022/03/17 09:27:43;;;;;;;41.25;23.88;;;;;;;;;;5113948;22;20029;-81
2022/03/17 09:30:10;;;;;;;39.42;22.33;;;;;;;;;;5039047;28;20038;-81
2022/03/17 09:32:36;;;;;;;40.60;22.95;;;;;;;;;;5020134;28;20328;-81
2022/03/17 09:35:03;;;;;;;40.47;23.52;;;;;;;;;;5040204;28;20039;-81
2022/03/17 09:37:29;;;;;;;43.92;25.02;;;;;;;;;;5037919;28;20030;-81
2022/03/17 09:39:55;;;;;;;42.42;25.85;;;;;;;;;;5018201;28;20033;-82
2022/03/17 09:42:22;;;;;;;49.50;26.75;;;;;;;;;;5020779;28;20490;-82
2022/03/17 09:44:53;;;;;;;51.63;26.65;;;;;;;;;;5017498;28;20050;-83
2022/03/17 09:47:19;;;;;;;;;;;;;;;;;;4998417;28;20023;-82
2022/03/17 09:49:52;;;;;;;43.05;24.48;;;;;;;;;;5007459;28;19988;-83
2022/03/17 09:52:20;;;;;;;53.33;26.88;;;;;;;;;;5000255;28;20103;-82
2022/03/17 09:54:55;;;;;;;48.88;26.70;;;;;;;;;;5002097;28;20109;-82
2022/03/17 10:00:47;;;;;;;46.40;27.20;;;;;;;;;;5064072;22;20138;-86
2022/03/17 10:03:10;;;;;;;46.20;27.00;;;;;;;;;;5051896;28;20378;-82
2022/03/17 10:05:37;;;;;;;46.97;28.02;;;;;;;;;;5049641;28;20029;-85
2022/03/17 10:08:03;;;;;;;49.38;29.27;;;;;;;;;;5049106;28;20034;-84
2022/03/17 10:10:44;;;;;;;49.97;28.90;;;;;;;;;;5044218;28;20101;-84
2022/03/17 10:13:14;;;;;;;46.60;28.40;;;;;;;;;;5055489;28;20035;-82
2022/03/17 10:15:41;;;;;;;48.15;29.42;;;;;;;;;;5055415;28;20050;-83
2022/03/17 10:18:19;;;;;;;50.60;30.33;;;;;;;;;;5037526;28;20057;-83
2022/03/17 10:20:46;;;;;;;53.72;30.70;;;;;;;;;;5037521;28;20006;-87
2022/03/17 10:23:24;;;;;;;55.08;31.52;;;;;;;;;;5035578;28;20052;-82
2022/03/17 10:25:55;;;;;;;54.05;30.95;;;;;;;;;;5054138;28;20058;-82
2022/03/17 10:28:26;;;;;;;50.22;30.77;;;;;;;;;;5055750;28;20104;-83
2022/03/17 10:31:01;;;;;;;49.25;30.00;;;;;;;;;;5055184;28;20029;-88
2022/03/17 10:33:29;;;;;;;50.60;30.65;;;;;;;;;;5036786;28;20029;-82
2022/03/17 10:35:55;;;;;;;70.55;31.70;;;;;;;;;;5053915;28;20033;-87
2022/03/17 10:38:23;;;;;;;53.17;30.35;;;;;;;;;;5054592;28;20041;-84
2022/03/17 10:41:02;;;;;;;55.67;33.47;;;;;;;;;;5049261;28;20033;-79
2022/03/17 10:43:31;;;;;;;61.17;31.60;;;;;;;;;;5051016;28;20021;-83
2022/03/17 10:46:19;;;;;;;58.03;32.00;;;;;;;;;;5054763;28;20032;-81
2022/03/17 10:48:55;;;;;;;48.90;29.23;;;;;;;;;;5053569;28;20013;-82
2022/03/17 10:51:31;;;;;;;50.28;30.17;;;;;;;;;;5036172;28;20009;-84
2022/03/17 10:54:18;;;;;;;58.33;31.65;;;;;;;;;;5054740;28;20033;-83
2022/03/17 10:56:56;;;;;;;59.05;31.58;;;;;;;;;;5052030;28;20029;-86
2022/03/17 10:59:22;;;;;;;58.03;32.88;;;;;;;;;;5054818;28;20044;-83
2022/03/17 11:01:48;;;;;;;58.22;32.92;;;;;;;;;;5054772;28;20060;-85
2022/03/17 11:04:15;;;;;;;66.43;33.05;;;;;;;;;;5052943;28;20032;-84
2022/03/17 11:06:41;;;;;;;58.53;32.00;;;;;;;;;;5053379;28;20026;-85
2022/03/17 11:09:10;;;;;;;60.38;32.20;;;;;;;;;;5036312;28;20047;-84
2022/03/17 11:11:37;;;;;;;57.95;31.73;;;;;;;;;;5068108;28;20041;-86
2022/03/17 11:14:04;;;;;;;52.50;30.42;;;;;;;;;;5072910;28;20025;-85
2022/03/17 11:16:41;;;;;;;60.67;30.30;;;;;;;;;;5036822;28;20041;-85
2022/03/17 11:19:12;;;;;;;53.92;31.27;;;;;;;;;;5049003;28;20037;-85
2022/03/17 11:21:41;;;;;;;50.15;29.27;;;;;;;;;;5053293;28;20029;-82
2022/03/17 11:24:08;;;;;;;59.30;29.08;;;;;;;;;;5044841;28;20588;-80
2022/03/17 11:26:39;;;;;;;51.47;29.20;;;;;;;;;;5042177;28;20036;-82
2022/03/17 11:29:05;;;;;;;55.60;29.63;;;;;;;;;;5043787;28;20026;-80
2022/03/17 11:31:50;;;;;;;45.45;27.98;;;;;;;;;;5040150;28;20028;-81
2022/03/17 11:34:39;;;;;;;43.17;26.77;;;;;;;;;;5040615;28;20021;-84
2022/03/17 11:37:21;;;;;;;49.45;27.10;;;;;;;;;;5039863;28;20112;-84
2022/03/17 11:39:48;;;;;;;49.13;27.10;;;;;;;;;;5039661;28;20079;-81
2022/03/17 11:42:30;;;;;;;48.33;28.00;;;;;;;;;;5037703;28;20056;-83
2022/03/17 11:45:15;;;;;;;45.33;26.48;;;;;;;;;;5040002;28;20030;-83
2022/03/17 11:47:54;;;;;;;49.90;28.25;;;;;;;;;;5039958;28;20029;-84
2022/03/17 11:50:33;;;;;;;48.22;26.75;;;;;;;;;;5039890;28;20026;-86
2022/03/17 11:53:00;;;;;;;47.25;26.63;;;;;;;;;;5037925;28;20024;-82
2022/03/17 11:55:32;;;;;;;52.33;27.33;;;;;;;;;;5041380;28;20033;-84
2022/03/17 11:58:17;;;;;;;46.08;26.65;;;;;;;;;;5045883;28;20469;-85
2022/03/17 12:00:54;;;;;;;45.72;25.67;;;;;;;;;;5026504;28;20033;-83
2022/03/17 12:03:46;;;;;;;46.05;27.27;;;;;;;;;;5044961;28;20124;-83
2022/03/17 12:06:16;;;;;;;50.65;25.70;;;;;;;;;;5040193;28;20044;-85
2022/03/17 12:08:49;;;;;;;46.72;26.55;;;;;;;;;;5044425;28;20028;-84
2022/03/17 12:11:16;;;;;;;48.50;24.52;;;;;;;;;;5026478;28;20022;-81
2022/03/17 12:13:42;;;;;;;44.97;25.95;;;;;;;;;;5043204;28;20025;-82
2022/03/17 12:16:11;;;;;;;48.58;24.40;;;;;;;;;;5044083;28;20034;-82
2022/03/17 12:18:56;;;;;;;44.08;25.17;;;;;;;;;;5043407;28;20033;-81
2022/03/17 12:21:42;;;;;;;46.75;24.52;;;;;;;;;;5041367;28;20036;-84
2022/03/17 12:24:08;;;;;;;49.03;25.85;;;;;;;;;;5044414;28;20040;-82
2022/03/17 12:26:34;;;;;;;42.42;24.77;;;;;;;;;;5043132;28;20477;-81
2022/03/17 12:31:53;;;;;;;44.72;25.65;;;;;;;;;;5041645;28;20536;-82
2022/03/17 12:34:19;;;;;;;45.88;24.83;;;;;;;;;;5042157;28;20028;-81
2022/03/17 12:36:54;;;;;;;43.33;23.60;;;;;;;;;;5042242;28;20041;-79
2022/03/17 12:39:27;;;;;;;39.70;23.17;;;;;;;;;;5043739;28;20086;-83
2022/03/17 12:41:53;;;;;;;44.67;25.30;;;;;;;;;;5037127;28;20022;-87
2022/03/17 12:47:28;;;;;;;42.30;24.70;;;;;;;;;;5030485;28;20088;-83
2022/03/17 12:49:55;;;;;;;48.55;25.20;;;;;;;;;;5036562;28;20030;-82
2022/03/17 12:52:37;;;;;;;44.95;26.67;;;;;;;;;;5045842;28;20021;-81
2022/03/17 12:55:05;;;;;;;44.75;25.27;;;;;;;;;;5043552;28;20026;-80
2022/03/17 12:57:34;;;;;;;43.80;25.38;;;;;;;;;;5036203;28;20033;-81
2022/03/17 13:00:00;;;;;;;49.95;26.23;;;;;;;;;;5027315;28;20049;-82
2022/03/17 13:02:34;;;;;;;43.40;25.88;;;;;;;;;;5029395;28;20037;-84
2022/03/17 13:08:02;;;;;;;46.50;25.58;;;;;;;;;;5037101;28;20068;-81
2022/03/17 13:14:20;;;;;;;42.88;24.70;;;;;;;;;;5028782;28;20080;-85
2022/03/17 13:16:11;;;;;;;37.85;21.60;;;;;;;;;;5046102;28;20104;-88
2022/03/17 13:18:49;;;;;;;40.60;21.10;;;;;;;;;;5048306;28;20040;-82
2022/03/17 13:21:17;;;;;;;34.78;19.60;;;;;;;;;;5041881;28;20033;-82
2022/03/17 13:27:02;;;;;;;34.30;18.13;;;;;;;;;;5029449;28;20032;-83
2022/03/17 13:30:03;;;;;;;32.85;18.20;;;;;;;;;;5034593;28;20091;-85
2022/03/17 13:39:15;;;;;;;34.78;18.90;;;;;;;;;;5025950;28;20033;-82
2022/03/17 13:41:56;;;;;;;30.17;18.23;;;;;;;;;;5036320;28;20053;-84
2022/03/17 13:44:47;;;;;;;35.55;18.40;;;;;;;;;;5040177;28;20168;-84
2022/03/17 13:47:21;;;;;;;36.45;18.15;;;;;;;;;;5040335;28;20097;-83
2022/03/17 13:50:19;;;;;;;;;;;;;;;;;;;;;
2022/03/17 13:53:27;;;;;;;33.47;18.60;;;;;;;;;;5038039;28;20191;-82
2022/03/17 13:55:57;;;;;;;33.15;17.50;;;;;;;;;;4963314;28;20027;-82
2022/03/17 13:58:51;;;;;;;34.40;17.95;;;;;;;;;;4947429;28;20113;-83
2022/03/17 14:01:19;;;;;;;27.70;16.70;;;;;;;;;;4979569;28;20025;-86
2022/03/17 14:07:10;;;;;;;26.48;14.25;;;;;;;;;;4900152;29;20033;-84
2022/03/17 14:09:41;;;;;;;28.38;14.55;;;;;;;;;;4968842;28;20030;-83
2022/03/17 14:12:17;;;;;;;21.67;13.45;;;;;;;;;;5026297;28;20052;-80
2022/03/17 14:14:43;;;;;;;23.27;13.07;;;;;;;;;;5021423;28;20032;-83
2022/03/17 14:17:12;;;;;;;23.70;12.95;;;;;;;;;;5021494;28;20511;-81
2022/03/17 14:19:46;;;;;;;22.98;13.10;;;;;;;;;;5030634;28;20026;-82
2022/03/17 14:25:14;;;;;;;23.25;11.73;;;;;;;;;;5028105;28;20410;-84
2022/03/17 14:28:11;;;;;;;27.00;10.82;;;;;;;;;;5018552;28;20018;-81
2022/03/17 14:30:37;;;;;;;21.08;11.57;;;;;;;;;;5006304;28;20490;-82
2022/03/17 14:33:12;;;;;;;18.58;10.70;;;;;;;;;;5018990;28;20064;-83
2022/03/17 14:35:39;;;;;;;19.90;11.30;;;;;;;;;;5018040;28;20485;-85
2022/03/17 14:41:05;;;;;;;19.70;9.70;;;;;;;;;;5083127;23;20061;-82
2022/03/17 14:43:31;;;;;;;16.00;8.73;;;;;;;;;;5042249;28;20033;-86
2022/03/17 14:46:00;;;;;;;16.70;9.75;;;;;;;;;;5028700;28;20060;-86
2022/03/17 14:48:26;;;;;;;14.25;8.48;;;;;;;;;;5046239;28;20072;-84
2022/03/17 14:50:52;;;;;;;18.65;10.18;;;;;;;;;;5050375;28;20077;-84
2022/03/17 14:53:21;;;;;;;14.38;8.52;;;;;;;;;;5056107;28;20033;-87
2022/03/17 14:55:47;;;;;;;14.23;8.32;;;;;;;;;;5033668;28;20025;-86
2022/03/17 14:58:13;;;;;;;13.88;7.38;;;;;;;;;;5033264;28;20025;-86
2022/03/17 15:00:40;;;;;;;13.65;7.97;;;;;;;;;;5048572;28;20029;-86
2022/03/17 15:03:14;;;;;;;14.65;7.43;;;;;;;;;;5031262;28;20037;-86
2022/03/17 15:06:13;;;;;;;;;;;;;;;;;;;;;
2022/03/17 15:08:29;;;;;;;12.35;7.30;;;;;;;;;;5040020;28;20029;-83
2022/03/17 15:13:53;;;;;;;13.70;7.53;;;;;;;;;;5046619;28;20040;-86
2022/03/17 15:16:20;;;;;;;13.07;7.05;;;;;;;;;;5029659;28;20037;-85
2022/03/17 15:18:54;;;;;;;16.17;8.70;;;;;;;;;;5045034;28;20030;-86
2022/03/17 15:21:20;;;;;;;12.60;6.97;;;;;;;;;;5021647;28;20067;-84
2022/03/17 15:23:47;;;;;;;13.05;6.95;;;;;;;;;;5038495;28;20029;-84
2022/03/17 15:26:13;;;;;;;10.88;6.53;;;;;;;;;;5038783;28;20017;-82
2022/03/17 15:31:24;;;;;;;17.75;6.78;;;;;;;;;;5038463;28;20036;-84
2022/03/17 15:33:51;;;;;;;10.90;5.60;;;;;;;;;;5039079;28;20170;-83
2022/03/17 15:36:17;;;;;;;11.93;5.35;;;;;;;;;;5038327;28;20028;-83
2022/03/17 15:38:46;;;;;;;10.32;5.57;;;;;;;;;;5038815;28;20025;-82
2022/03/17 15:41:13;;;;;;;8.57;6.15;;;;;;;;;;5048066;28;20013;-83
2022/03/17 15:43:46;;;;;;;9.00;5.25;;;;;;;;;;5049521;28;20051;-81
2022/03/17 15:46:12;;;;;;;9.52;5.32;;;;;;;;;;5038598;28;20021;-81
2022/03/17 15:48:39;;;;;;;8.60;5.35;;;;;;;;;;5036542;28;20033;-83
2022/03/17 15:51:06;;;;;;;10.50;5.82;;;;;;;;;;5036208;28;20030;-84
2022/03/17 15:53:32;;;;;;;14.13;5.10;;;;;;;;;;5036614;28;20033;-83
2022/03/17 15:55:58;;;;;;;10.40;5.32;;;;;;;;;;5046249;28;20029;-80
2022/03/17 15:58:24;;;;;;;8.30;4.93;;;;;;;;;;5039804;28;20029;-81
2022/03/17 16:00:50;;;;;;;10.93;5.88;;;;;;;;;;5019215;28;20342;-83
2022/03/17 16:03:17;;;;;;;7.93;4.65;;;;;;;;;;5037086;28;20057;-83
2022/03/17 16:05:43;;;;;;;8.85;5.10;;;;;;;;;;5038091;28;20018;-84
2022/03/17 16:08:11;;;;;;;10.00;5.07;;;;;;;;;;5029628;28;20022;-81
2022/03/17 16:17:25;;;;;;;;;;;;;;;;;;;;;
2022/03/17 16:20:07;;;;;;;8.77;5.40;;;;;;;;;;4933203;29;20558;-82
2022/03/17 16:22:33;;;;;;;8.68;5.55;;;;;;;;;;4917662;29;20119;-82
2022/03/17 16:25:31;;;;;;;11.57;6.38;;;;;;;;;;5011537;28;20155;-82
2022/03/17 16:28:26;;;;;;;8.05;5.10;;;;;;;;;;5014918;28;20122;-81